sensor_id;sensor_type;location;lat;lon;timestamp;P1;durP1;ratioP1;P2;durP2;ratioP2
56631;SDS011;42503;39.928;-75.152;2023-08-21T00:01:20;8.73;;;7.35;;
56631;SDS011;42503;39.928;-75.152;2023-08-21T00:11:22;8.38;;;7.50;;
56631;SDS011;42503;39.928;-75.152;2023-08-21T00:21:23;9.25;;;7.60;;
56631;SDS011;42503;39.928;-75.152;2023-08-21T00:31:24;9.90;;;7.90;;
56631;SDS011;42503;39.928;-75.152;2023-08-21T00:41:26;7.63;;;6.82;;
56631;SDS011;42503;39.928;-75.152;2023-08-21T00:51:27;8.13;;;7.10;;
56631;SDS011;42503;39.928;-75.152;2023-08-21T01:01:29;8.88;;;7.93;;
56631;SDS011;42503;39.928;-75.152;2023-08-21T01:11:35;8.75;;;7.70;;
56631;SDS011;42503;39.928;-75.152;2023-08-21T01:21:49;8.82;;;7.75;;
56631;SDS011;42503;39.928;-75.152;2023-08-21T01:32:40;8.63;;;7.72;;
56631;SDS011;42503;39.928;-75.152;2023-08-21T01:42:21;8.18;;;7.28;;
56631;SDS011;42503;39.928;-75.152;2023-08-21T01:52:23;9.07;;;7.50;;
56631;SDS011;42503;39.928;-75.152;2023-08-21T02:02:24;17.05;;;8.27;;
56631;SDS011;42503;39.928;-75.152;2023-08-21T02:12:26;22.10;;;10.18;;
56631;SDS011;42503;39.928;-75.152;2023-08-21T02:22:27;23.13;;;10.57;;
56631;SDS011;42503;39.928;-75.152;2023-08-21T02:32:28;19.98;;;9.52;;
56631;SDS011;42503;39.928;-75.152;2023-08-21T02:42:30;20.65;;;10.30;;
56631;SDS011;42503;39.928;-75.152;2023-08-21T02:52:32;17.70;;;10.02;;
56631;SDS011;42503;39.928;-75.152;2023-08-21T03:02:34;15.57;;;9.75;;
56631;SDS011;42503;39.928;-75.152;2023-08-21T03:12:35;17.60;;;9.50;;
56631;SDS011;42503;39.928;-75.152;2023-08-21T03:22:36;17.00;;;8.98;;
56631;SDS011;42503;39.928;-75.152;2023-08-21T03:32:38;14.65;;;9.45;;
56631;SDS011;42503;39.928;-75.152;2023-08-21T03:42:39;15.80;;;9.48;;
56631;SDS011;42503;39.928;-75.152;2023-08-21T03:52:43;13.68;;;8.80;;
56631;SDS011;42503;39.928;-75.152;2023-08-21T04:02:45;18.52;;;8.50;;
56631;SDS011;42503;39.928;-75.152;2023-08-21T04:12:46;20.67;;;12.48;;
56631;SDS011;42503;39.928;-75.152;2023-08-21T04:22:48;65.07;;;38.60;;
56631;SDS011;42503;39.928;-75.152;2023-08-21T04:32:52;81.85;;;53.55;;
56631;SDS011;42503;39.928;-75.152;2023-08-21T04:42:54;83.70;;;56.80;;
56631;SDS011;42503;39.928;-75.152;2023-08-21T04:52:55;83.38;;;54.65;;
56631;SDS011;42503;39.928;-75.152;2023-08-21T05:02:57;78.07;;;49.83;;
56631;SDS011;42503;39.928;-75.152;2023-08-21T05:12:58;67.43;;;46.55;;
56631;SDS011;42503;39.928;-75.152;2023-08-21T05:23:00;58.58;;;42.95;;
56631;SDS011;42503;39.928;-75.152;2023-08-21T05:33:02;53.50;;;39.35;;
56631;SDS011;42503;39.928;-75.152;2023-08-21T05:43:04;48.78;;;35.30;;
56631;SDS011;42503;39.928;-75.152;2023-08-21T05:53:05;49.10;;;34.03;;
56631;SDS011;42503;39.928;-75.152;2023-08-21T06:03:07;43.67;;;30.85;;
56631;SDS011;42503;39.928;-75.152;2023-08-21T06:13:08;42.53;;;29.33;;
56631;SDS011;42503;39.928;-75.152;2023-08-21T06:23:10;35.28;;;27.38;;
56631;SDS011;42503;39.928;-75.152;2023-08-21T06:33:11;34.67;;;26.17;;
56631;SDS011;42503;39.928;-75.152;2023-08-21T06:43:13;30.98;;;22.73;;
56631;SDS011;42503;39.928;-75.152;2023-08-21T06:53:14;27.77;;;22.73;;
56631;SDS011;42503;39.928;-75.152;2023-08-21T07:03:15;28.38;;;21.45;;
56631;SDS011;42503;39.928;-75.152;2023-08-21T07:13:17;26.33;;;20.83;;
56631;SDS011;42503;39.928;-75.152;2023-08-21T07:23:18;23.98;;;19.63;;
56631;SDS011;42503;39.928;-75.152;2023-08-21T07:33:20;23.55;;;18.52;;
56631;SDS011;42503;39.928;-75.152;2023-08-21T07:43:21;23.13;;;18.20;;
56631;SDS011;42503;39.928;-75.152;2023-08-21T07:53:23;19.77;;;16.92;;
56631;SDS011;42503;39.928;-75.152;2023-08-21T08:03:25;21.23;;;16.85;;
56631;SDS011;42503;39.928;-75.152;2023-08-21T08:13:26;18.48;;;14.93;;
56631;SDS011;42503;39.928;-75.152;2023-08-21T08:23:27;18.77;;;15.55;;
56631;SDS011;42503;39.928;-75.152;2023-08-21T08:33:29;18.63;;;15.05;;
56631;SDS011;42503;39.928;-75.152;2023-08-21T08:43:30;17.67;;;14.68;;
56631;SDS011;42503;39.928;-75.152;2023-08-21T08:53:32;16.33;;;13.93;;
56631;SDS011;42503;39.928;-75.152;2023-08-21T09:03:34;17.10;;;13.27;;
56631;SDS011;42503;39.928;-75.152;2023-08-21T09:13:35;13.82;;;12.32;;
56631;SDS011;42503;39.928;-75.152;2023-08-21T09:23:38;15.38;;;12.88;;
56631;SDS011;42503;39.928;-75.152;2023-08-21T09:33:39;14.60;;;12.73;;
56631;SDS011;42503;39.928;-75.152;2023-08-21T09:43:41;14.68;;;11.70;;
56631;SDS011;42503;39.928;-75.152;2023-08-21T09:53:44;13.93;;;11.98;;
56631;SDS011;42503;39.928;-75.152;2023-08-21T10:03:46;12.48;;;9.82;;
56631;SDS011;42503;39.928;-75.152;2023-08-21T10:13:48;13.00;;;10.98;;
56631;SDS011;42503;39.928;-75.152;2023-08-21T10:23:54;13.05;;;11.02;;
56631;SDS011;42503;39.928;-75.152;2023-08-21T10:33:57;12.68;;;10.93;;
56631;SDS011;42503;39.928;-75.152;2023-08-21T10:44:00;12.02;;;10.13;;
56631;SDS011;42503;39.928;-75.152;2023-08-21T10:54:10;11.50;;;10.20;;
56631;SDS011;42503;39.928;-75.152;2023-08-21T11:04:14;12.07;;;9.65;;
56631;SDS011;42503;39.928;-75.152;2023-08-21T11:14:16;11.95;;;10.02;;
56631;SDS011;42503;39.928;-75.152;2023-08-21T11:24:17;10.48;;;9.15;;
56631;SDS011;42503;39.928;-75.152;2023-08-21T11:34:19;10.73;;;9.35;;
56631;SDS011;42503;39.928;-75.152;2023-08-21T11:44:20;11.32;;;9.77;;
56631;SDS011;42503;39.928;-75.152;2023-08-21T11:54:24;10.65;;;9.55;;
56631;SDS011;42503;39.928;-75.152;2023-08-21T12:04:26;10.90;;;9.00;;
56631;SDS011;42503;39.928;-75.152;2023-08-21T12:14:28;11.38;;;9.48;;
56631;SDS011;42503;39.928;-75.152;2023-08-21T12:24:30;9.57;;;7.63;;
56631;SDS011;42503;39.928;-75.152;2023-08-21T12:34:31;10.63;;;8.45;;
56631;SDS011;42503;39.928;-75.152;2023-08-21T12:44:33;11.45;;;8.57;;
56631;SDS011;42503;39.928;-75.152;2023-08-21T12:54:38;11.63;;;8.73;;
56631;SDS011;42503;39.928;-75.152;2023-08-21T13:04:40;10.55;;;8.95;;
56631;SDS011;42503;39.928;-75.152;2023-08-21T13:14:41;10.65;;;9.05;;
56631;SDS011;42503;39.928;-75.152;2023-08-21T13:24:42;11.23;;;9.20;;
56631;SDS011;42503;39.928;-75.152;2023-08-21T13:34:44;9.80;;;8.18;;
56631;SDS011;42503;39.928;-75.152;2023-08-21T13:44:48;9.50;;;8.48;;
56631;SDS011;42503;39.928;-75.152;2023-08-21T13:54:50;9.43;;;7.75;;
56631;SDS011;42503;39.928;-75.152;2023-08-21T14:04:51;11.00;;;8.77;;
56631;SDS011;42503;39.928;-75.152;2023-08-21T14:14:53;24.55;;;18.48;;
56631;SDS011;42503;39.928;-75.152;2023-08-21T14:24:54;49.42;;;38.60;;
56631;SDS011;42503;39.928;-75.152;2023-08-21T14:34:55;77.22;;;56.38;;
56631;SDS011;42503;39.928;-75.152;2023-08-21T14:44:57;79.63;;;61.30;;
56631;SDS011;42503;39.928;-75.152;2023-08-21T14:55:01;81.93;;;59.15;;
56631;SDS011;42503;39.928;-75.152;2023-08-21T15:05:02;74.07;;;54.15;;
56631;SDS011;42503;39.928;-75.152;2023-08-21T15:15:07;66.80;;;49.65;;
56631;SDS011;42503;39.928;-75.152;2023-08-21T15:25:12;55.85;;;41.28;;
56631;SDS011;42503;39.928;-75.152;2023-08-21T15:35:16;51.10;;;38.70;;
56631;SDS011;42503;39.928;-75.152;2023-08-21T15:45:18;43.83;;;34.67;;
56631;SDS011;42503;39.928;-75.152;2023-08-21T15:55:19;40.72;;;31.67;;
56631;SDS011;42503;39.928;-75.152;2023-08-21T16:05:21;35.33;;;28.65;;
56631;SDS011;42503;39.928;-75.152;2023-08-21T16:15:23;31.88;;;25.55;;
56631;SDS011;42503;39.928;-75.152;2023-08-21T16:25:24;33.70;;;25.13;;
56631;SDS011;42503;39.928;-75.152;2023-08-21T16:35:26;29.58;;;23.63;;
56631;SDS011;42503;39.928;-75.152;2023-08-21T16:45:27;29.95;;;22.13;;
56631;SDS011;42503;39.928;-75.152;2023-08-21T16:55:28;27.60;;;21.13;;
56631;SDS011;42503;39.928;-75.152;2023-08-21T17:05:30;23.40;;;20.25;;
56631;SDS011;42503;39.928;-75.152;2023-08-21T17:15:35;23.92;;;19.40;;
56631;SDS011;42503;39.928;-75.152;2023-08-21T17:25:37;19.85;;;17.42;;
56631;SDS011;42503;39.928;-75.152;2023-08-21T17:35:39;21.75;;;17.13;;
56631;SDS011;42503;39.928;-75.152;2023-08-21T17:45:40;19.10;;;16.23;;
56631;SDS011;42503;39.928;-75.152;2023-08-21T17:55:42;18.98;;;16.58;;
56631;SDS011;42503;39.928;-75.152;2023-08-21T18:05:46;19.10;;;16.20;;
56631;SDS011;42503;39.928;-75.152;2023-08-21T18:15:48;16.85;;;14.20;;
56631;SDS011;42503;39.928;-75.152;2023-08-21T18:25:50;17.65;;;14.02;;
56631;SDS011;42503;39.928;-75.152;2023-08-21T18:35:53;19.17;;;14.77;;
56631;SDS011;42503;39.928;-75.152;2023-08-21T18:45:55;15.98;;;13.45;;
56631;SDS011;42503;39.928;-75.152;2023-08-21T18:55:57;16.77;;;13.75;;
56631;SDS011;42503;39.928;-75.152;2023-08-21T19:05:58;15.13;;;13.40;;
56631;SDS011;42503;39.928;-75.152;2023-08-21T19:16:03;16.23;;;13.02;;
56631;SDS011;42503;39.928;-75.152;2023-08-21T19:26:05;18.23;;;13.43;;
56631;SDS011;42503;39.928;-75.152;2023-08-21T19:36:10;15.25;;;12.20;;
56631;SDS011;42503;39.928;-75.152;2023-08-21T19:46:13;15.35;;;11.35;;
56631;SDS011;42503;39.928;-75.152;2023-08-21T19:56:14;14.45;;;12.10;;
56631;SDS011;42503;39.928;-75.152;2023-08-21T20:06:16;14.60;;;11.43;;
56631;SDS011;42503;39.928;-75.152;2023-08-21T20:16:17;14.02;;;11.10;;
56631;SDS011;42503;39.928;-75.152;2023-08-21T20:26:19;14.73;;;10.90;;
56631;SDS011;42503;39.928;-75.152;2023-08-21T20:36:24;34.22;;;11.70;;
56631;SDS011;42503;39.928;-75.152;2023-08-21T20:46:26;22.00;;;13.05;;
56631;SDS011;42503;39.928;-75.152;2023-08-21T20:56:29;21.05;;;12.00;;
56631;SDS011;42503;39.928;-75.152;2023-08-21T21:06:31;16.80;;;11.15;;
56631;SDS011;42503;39.928;-75.152;2023-08-21T21:16:32;20.60;;;12.20;;
56631;SDS011;42503;39.928;-75.152;2023-08-21T21:26:33;17.52;;;11.95;;
56631;SDS011;42503;39.928;-75.152;2023-08-21T21:36:35;16.10;;;11.73;;
56631;SDS011;42503;39.928;-75.152;2023-08-21T21:46:41;14.70;;;11.60;;
56631;SDS011;42503;39.928;-75.152;2023-08-21T21:56:44;14.93;;;11.70;;
56631;SDS011;42503;39.928;-75.152;2023-08-21T22:06:46;14.40;;;12.25;;
56631;SDS011;42503;39.928;-75.152;2023-08-21T22:16:47;14.45;;;12.10;;
56631;SDS011;42503;39.928;-75.152;2023-08-21T22:26:49;15.02;;;12.30;;
56631;SDS011;42503;39.928;-75.152;2023-08-21T22:36:50;17.67;;;12.32;;
56631;SDS011;42503;39.928;-75.152;2023-08-21T22:46:52;16.73;;;12.15;;
56631;SDS011;42503;39.928;-75.152;2023-08-21T22:56:54;17.10;;;12.40;;
56631;SDS011;42503;39.928;-75.152;2023-08-21T23:06:55;18.85;;;12.60;;
56631;SDS011;42503;39.928;-75.152;2023-08-21T23:16:57;15.65;;;11.93;;
56631;SDS011;42503;39.928;-75.152;2023-08-21T23:26:58;13.80;;;12.10;;
56631;SDS011;42503;39.928;-75.152;2023-08-21T23:37:00;13.32;;;11.82;;
56631;SDS011;42503;39.928;-75.152;2023-08-21T23:47:04;16.15;;;12.85;;
56631;SDS011;42503;39.928;-75.152;2023-08-21T23:57:09;13.93;;;12.43;;
